createdAt,value
2019-05-01T00:00:00.888Z,15.40
2019-05-01T00:03:03.868Z,16.30
2019-05-01T00:06:01.952Z,18.97
2019-05-01T00:08:46.602Z,23.97
2019-05-01T00:11:31.178Z,17.70
2019-05-01T00:14:15.885Z,20.07
2019-05-01T00:17:00.455Z,18.17
2019-05-01T00:19:45.038Z,14.83
2019-05-01T00:22:29.604Z,16.70
2019-05-01T00:25:14.310Z,17.17
2019-05-01T00:27:59.106Z,17.17
2019-05-01T00:30:44.106Z,17.50
2019-05-01T00:33:29.153Z,19.93
2019-05-01T00:36:14.095Z,23.93
2019-05-01T00:38:59.231Z,15.37
2019-05-01T00:41:43.974Z,18.53
2019-05-01T00:44:28.783Z,21.13
2019-05-01T00:47:13.727Z,15.30
2019-05-01T00:49:58.643Z,17.90
2019-05-01T00:52:43.557Z,21.77
2019-05-01T00:55:39.145Z,18.33
2019-05-01T00:58:28.745Z,20.20
2019-05-01T01:01:32.042Z,23.03
2019-05-01T01:04:19.197Z,18.20
2019-05-01T01:07:04.428Z,22.97
2019-05-01T01:09:48.929Z,21.90
2019-05-01T01:12:34.099Z,18.43
2019-05-01T01:15:19.016Z,19.87
2019-05-01T01:18:04.177Z,18.00
2019-05-01T01:20:48.905Z,19.70
2019-05-01T01:23:33.776Z,19.73
2019-05-01T01:26:18.495Z,17.97
2019-05-01T01:29:03.147Z,17.17
2019-05-01T01:31:48.364Z,15.93
2019-05-01T01:34:33.050Z,18.10
2019-05-01T01:37:18.027Z,20.00
2019-05-01T01:40:04.321Z,26.93
2019-05-01T01:42:51.264Z,17.53
2019-05-01T01:45:40.617Z,18.17
2019-05-01T01:48:25.340Z,19.20
2019-05-01T01:51:10.457Z,16.60
2019-05-01T01:53:56.813Z,16.20
2019-05-01T01:56:41.585Z,19.73
2019-05-01T01:59:26.945Z,18.50
2019-05-01T02:02:13.704Z,22.03
2019-05-01T02:05:09.591Z,26.20
2019-05-01T02:07:55.010Z,18.30
2019-05-01T02:10:42.916Z,22.33
2019-05-01T02:13:27.125Z,21.30
2019-05-01T02:16:12.000Z,23.57
2019-05-01T02:18:56.993Z,19.97
2019-05-01T02:21:41.997Z,17.37
2019-05-01T02:24:27.283Z,17.60
2019-05-01T02:27:14.227Z,21.30
2019-05-01T02:30:01.139Z,20.53
2019-05-01T02:32:46.422Z,21.50
2019-05-01T02:35:32.509Z,20.40
2019-05-01T02:38:17.628Z,22.23
2019-05-01T02:41:02.634Z,21.77
2019-05-01T02:43:49.578Z,22.10
2019-05-01T02:46:35.530Z,20.27
2019-05-01T02:49:23.939Z,20.23
2019-05-01T02:52:10.361Z,23.80
2019-05-01T02:54:58.474Z,24.43
2019-05-01T02:57:43.725Z,18.90
2019-05-01T03:00:28.239Z,19.40
2019-05-01T03:03:13.195Z,18.50
2019-05-01T03:05:57.894Z,26.03
2019-05-01T03:08:43.079Z,20.30
2019-05-01T03:11:28.853Z,22.20
2019-05-01T03:14:16.646Z,24.17
2019-05-01T03:17:04.170Z,20.23
2019-05-01T03:19:50.710Z,20.63
2019-05-01T03:22:40.197Z,31.40
2019-05-01T03:25:24.789Z,19.93
2019-05-01T03:28:10.101Z,19.80
2019-05-01T03:30:56.056Z,16.10
2019-05-01T03:33:41.068Z,21.70
2019-05-01T03:36:26.324Z,17.73
2019-05-01T03:39:11.529Z,22.17
2019-05-01T03:41:57.039Z,20.53
2019-05-01T03:44:41.746Z,20.53
2019-05-01T03:47:26.487Z,18.47
2019-05-01T03:50:11.029Z,15.83
2019-05-01T03:52:55.696Z,19.43
2019-05-01T03:55:40.199Z,17.40
2019-05-01T03:58:25.094Z,20.50
2019-05-01T04:01:20.313Z,18.50
2019-05-01T04:04:07.473Z,17.83
2019-05-01T04:06:51.952Z,17.57
2019-05-01T04:09:36.945Z,15.33
2019-05-01T04:12:21.875Z,15.90
2019-05-01T04:15:06.924Z,20.67
2019-05-01T04:17:53.906Z,18.70
2019-05-01T04:20:39.278Z,19.27
2019-05-01T04:23:24.031Z,19.13
2019-05-01T04:26:09.016Z,20.77
2019-05-01T04:28:55.644Z,14.37
2019-05-01T04:31:42.600Z,16.47
2019-05-01T04:34:35.905Z,17.37
2019-05-01T04:37:22.917Z,28.80
2019-05-01T04:40:08.354Z,22.67
2019-05-01T04:42:53.279Z,22.57
2019-05-01T04:45:38.083Z,15.50
2019-05-01T04:48:23.203Z,14.97
2019-05-01T04:51:08.273Z,19.00
2019-05-01T04:53:53.222Z,16.30
2019-05-01T04:56:38.449Z,18.03
2019-05-01T04:59:23.555Z,17.77
2019-05-01T05:02:10.485Z,16.33
2019-05-01T05:04:55.577Z,13.80
2019-05-01T05:07:40.595Z,17.37
2019-05-01T05:10:26.221Z,15.80
2019-05-01T05:13:28.629Z,18.13
2019-05-01T05:16:17.668Z,19.77
2019-05-01T05:19:03.562Z,14.37
2019-05-01T05:21:49.143Z,14.73
2019-05-01T05:24:34.797Z,16.00
2019-05-01T05:27:19.521Z,14.87
2019-05-01T05:30:04.635Z,13.73
2019-05-01T05:32:51.224Z,13.13
2019-05-01T05:35:38.570Z,13.90
2019-05-01T05:38:43.800Z,13.50
2019-05-01T05:41:30.170Z,10.67
2019-05-01T05:44:15.152Z,12.40
2019-05-01T05:47:00.404Z,12.17
2019-05-01T05:49:45.458Z,10.60
2019-05-01T05:52:33.604Z,10.90
2019-05-01T05:55:26.286Z,11.07
2019-05-01T05:58:12.892Z,13.50
2019-05-01T06:01:03.418Z,11.40
2019-05-01T06:03:56.087Z,11.50
2019-05-01T06:06:46.409Z,9.13
2019-05-01T06:09:35.765Z,9.77
2019-05-01T06:12:29.052Z,7.37
2019-05-01T06:15:15.815Z,11.13
2019-05-01T06:18:04.076Z,11.20
2019-05-01T06:21:02.346Z,10.70
2019-05-01T06:23:52.719Z,10.53
2019-05-01T06:26:39.267Z,14.33
2019-05-01T06:29:23.001Z,10.27
2019-05-01T06:32:07.788Z,10.47
2019-05-01T06:34:52.802Z,8.70
2019-05-01T06:37:43.946Z,8.37
2019-05-01T06:40:37.468Z,8.23
2019-05-01T06:43:36.243Z,7.57
2019-05-01T06:46:31.750Z,9.27
2019-05-01T06:49:24.228Z,11.43
2019-05-01T06:52:08.388Z,9.23
2019-05-01T06:54:55.068Z,11.73
2019-05-01T06:57:43.721Z,10.07
2019-05-01T07:00:27.357Z,8.50
2019-05-01T09:33:21.914Z,22.60
2019-05-01T09:36:06.514Z,16.63
2019-05-01T09:38:51.285Z,16.90
2019-05-01T09:41:38.355Z,18.43
2019-05-01T09:44:22.945Z,17.90
2019-05-01T09:47:08.361Z,18.43
2019-05-01T09:49:55.611Z,15.65
2019-05-01T09:52:59.764Z,15.50
2019-05-01T09:56:03.301Z,17.30
2019-05-01T09:58:46.377Z,12.55
2019-05-01T10:01:32.937Z,14.05
2019-05-01T10:04:18.435Z,15.53
2019-05-01T10:07:04.147Z,16.97
2019-05-01T10:09:52.246Z,17.32
2019-05-01T10:12:35.618Z,15.25
2019-05-01T10:15:20.553Z,15.60
2019-05-01T10:18:06.606Z,16.65
2019-05-01T10:20:51.277Z,16.03
2019-05-01T10:23:36.156Z,14.38
2019-05-01T10:26:24.041Z,17.73
2019-05-01T10:29:14.712Z,14.15
2019-05-01T10:32:01.522Z,17.25
2019-05-01T10:34:57.536Z,18.90
2019-05-01T10:37:42.373Z,17.27
2019-05-01T10:40:32.215Z,18.70
2019-05-01T10:43:13.965Z,16.57
2019-05-01T10:45:59.068Z,16.77
2019-05-01T10:48:43.894Z,19.30
2019-05-01T10:51:28.782Z,21.02
2019-05-01T10:54:13.658Z,22.77
2019-05-01T10:56:58.866Z,17.37
2019-05-01T10:59:45.502Z,20.72
2019-05-01T11:02:30.273Z,19.75
2019-05-01T11:05:15.349Z,16.75
2019-05-01T11:08:00.282Z,21.12
2019-05-01T11:10:45.102Z,16.10
2019-05-01T11:13:29.955Z,21.00
2019-05-01T11:16:14.757Z,19.45
2019-05-01T11:18:59.601Z,19.10
2019-05-01T11:21:44.494Z,18.50
2019-05-01T11:24:29.361Z,21.02
2019-05-01T11:27:14.236Z,20.35
2019-05-01T11:29:59.254Z,15.83
2019-05-01T11:32:56.022Z,17.62
2019-05-01T11:35:45.147Z,16.85
2019-05-01T11:38:34.632Z,16.97
2019-05-01T11:41:36.004Z,16.12
2019-05-01T11:44:20.797Z,19.25
2019-05-01T11:47:05.667Z,20.55
2019-05-01T11:49:50.549Z,19.48
2019-05-01T11:52:35.414Z,18.30
2019-05-01T11:55:20.384Z,16.70
2019-05-01T11:58:05.392Z,16.20
2019-05-01T12:00:52.114Z,18.23
2019-05-01T12:03:36.829Z,21.82
2019-05-01T12:06:22.951Z,21.82
2019-05-01T12:09:08.463Z,19.40
2019-05-01T12:11:55.020Z,18.05
2019-05-01T12:14:39.871Z,17.62
2019-05-01T12:17:43.364Z,22.95
2019-05-01T12:20:28.115Z,18.15
2019-05-01T12:23:12.988Z,21.37
2019-05-01T12:25:57.990Z,20.62
2019-05-01T12:28:42.869Z,16.80
2019-05-01T12:31:27.965Z,20.57
2019-05-01T12:34:12.581Z,19.48
2019-05-01T12:37:16.085Z,16.32
2019-05-01T12:40:01.263Z,17.30
2019-05-01T12:42:46.217Z,14.35
2019-05-01T12:45:31.336Z,16.20
2019-05-01T12:48:16.090Z,15.88
2019-05-01T12:51:01.395Z,15.20
2019-05-01T12:53:48.376Z,21.60
2019-05-01T12:56:35.269Z,18.73
2019-05-01T12:59:20.466Z,21.65
2019-05-01T13:02:05.261Z,21.85
2019-05-01T13:04:50.214Z,52.23
2019-05-01T13:07:34.964Z,47.03
2019-05-01T13:10:19.952Z,23.40
2019-05-01T13:13:04.835Z,21.23
2019-05-01T13:15:49.635Z,18.32
2019-05-01T13:18:34.769Z,21.25
2019-05-01T13:21:19.609Z,19.62
2019-05-01T13:24:04.701Z,17.50
2019-05-01T13:26:51.215Z,17.67
2019-05-01T13:29:44.270Z,19.95
2019-05-01T13:32:33.831Z,20.43
2019-05-01T13:35:18.617Z,17.32
2019-05-01T13:38:03.691Z,21.73
2019-05-01T13:40:48.227Z,18.75
2019-05-01T13:43:33.289Z,17.52
2019-05-01T13:46:17.952Z,19.92
2019-05-01T13:49:03.074Z,16.52
2019-05-01T13:51:47.773Z,17.35
2019-05-01T13:54:32.631Z,17.30
2019-05-01T13:57:17.477Z,16.20
2019-05-01T14:00:04.984Z,16.35
2019-05-01T14:02:49.697Z,15.68
2019-05-01T14:05:34.567Z,16.62
2019-05-01T14:08:19.637Z,19.07
2019-05-01T14:11:04.584Z,15.03
2019-05-01T14:13:49.222Z,13.60
2019-05-01T14:16:33.955Z,15.38
2019-05-01T14:19:18.833Z,20.75
2019-05-01T14:22:05.648Z,16.48
2019-05-01T14:24:52.328Z,16.77
2019-05-01T14:27:37.104Z,15.93
2019-05-01T14:30:22.025Z,18.80
2019-05-01T14:33:06.745Z,15.55
2019-05-01T14:35:51.717Z,15.13
2019-05-01T14:38:36.743Z,14.25
2019-05-01T14:41:21.619Z,13.55
2019-05-01T14:44:06.375Z,14.98
2019-05-01T14:46:51.433Z,13.72
2019-05-01T14:49:36.314Z,16.00
2019-05-01T14:52:21.205Z,16.55
2019-05-01T14:55:06.704Z,13.10
2019-05-01T14:57:51.575Z,14.85
2019-05-01T15:00:37.789Z,13.83
2019-05-01T15:03:22.445Z,12.98
2019-05-01T15:06:07.467Z,18.17
2019-05-01T15:08:52.210Z,12.30
2019-05-01T15:11:38.016Z,12.75
2019-05-01T15:14:27.705Z,12.78
2019-05-01T15:17:20.396Z,12.98
2019-05-01T15:20:05.488Z,12.53
2019-05-01T15:22:50.362Z,12.73
2019-05-01T15:25:35.175Z,12.23
2019-05-01T15:28:20.046Z,13.28
2019-05-01T15:31:04.949Z,10.23
2019-05-01T15:33:49.746Z,11.88
2019-05-01T15:36:34.737Z,15.70
2019-05-01T15:39:30.498Z,12.63
2019-05-01T15:42:22.939Z,12.03
2019-05-01T15:45:08.015Z,16.42
2019-05-01T15:47:52.956Z,14.10
2019-05-01T15:50:37.938Z,13.95
2019-05-01T15:53:22.745Z,12.25
2019-05-01T15:56:07.866Z,16.02
2019-05-01T15:58:52.589Z,13.95
2019-05-01T16:01:37.418Z,11.50
2019-05-01T16:04:22.261Z,14.70
2019-05-01T16:07:07.148Z,13.08
2019-05-01T16:09:52.086Z,13.95
2019-05-01T16:12:38.923Z,12.82
2019-05-01T16:15:26.020Z,11.63
2019-05-01T16:18:10.798Z,16.10
2019-05-01T16:20:55.659Z,15.72
2019-05-01T16:23:40.427Z,11.97
2019-05-01T16:26:25.213Z,13.53
2019-05-01T16:29:10.162Z,13.30
2019-05-01T16:31:54.793Z,12.40
2019-05-01T16:34:39.801Z,17.77
2019-05-01T16:37:24.479Z,15.70
2019-05-01T16:40:17.789Z,13.32
2019-05-01T16:43:04.852Z,14.45
2019-05-01T16:45:49.959Z,12.35
2019-05-01T16:48:34.638Z,14.20
2019-05-01T16:51:19.912Z,11.48
2019-05-01T16:54:04.658Z,11.68
2019-05-01T16:56:49.687Z,11.83
2019-05-01T16:59:34.303Z,10.45
2019-05-01T17:02:26.929Z,9.83
2019-05-01T17:05:22.744Z,15.60
2019-05-01T17:08:09.606Z,10.45
2019-05-01T17:10:54.453Z,10.40
2019-05-01T17:13:39.690Z,11.05
2019-05-01T17:16:24.407Z,12.15
2019-05-01T17:19:09.310Z,12.73
2019-05-01T17:21:54.053Z,10.95
2019-05-01T17:24:39.253Z,8.60
2019-05-01T17:27:24.032Z,8.55
2019-05-01T17:30:14.694Z,11.20
2019-05-01T17:33:00.897Z,14.65
2019-05-01T17:35:46.099Z,10.67
2019-05-01T17:38:30.702Z,9.30
2019-05-01T17:41:15.461Z,9.60
2019-05-01T17:44:00.407Z,9.80
2019-05-01T17:46:46.838Z,6.55
2019-05-01T17:49:31.977Z,10.20
2019-05-01T17:52:17.016Z,7.57
2019-05-01T17:55:04.385Z,6.62
2019-05-01T17:57:49.330Z,7.60
2019-05-01T18:00:36.213Z,6.17
2019-05-01T18:03:39.636Z,7.45
2019-05-01T18:06:35.283Z,7.47
2019-05-01T18:09:20.260Z,8.75
2019-05-01T18:12:05.118Z,10.78
2019-05-01T18:14:49.852Z,6.43
2019-05-01T18:17:34.672Z,6.60
2019-05-01T18:20:19.459Z,7.80
2019-05-01T18:23:18.454Z,6.93
2019-05-01T18:26:08.807Z,6.93
2019-05-01T18:29:00.675Z,8.97
2019-05-01T18:31:43.492Z,5.87
2019-05-01T18:34:28.221Z,9.70
2019-05-01T18:37:17.698Z,14.53
2019-05-01T18:40:06.826Z,10.03
2019-05-01T18:42:51.463Z,7.63
2019-05-01T18:45:47.902Z,5.90
2019-05-01T18:48:33.154Z,9.53
2019-05-01T18:51:17.727Z,10.20
2019-05-01T18:54:02.695Z,8.27
2019-05-01T18:56:47.423Z,8.57
2019-05-01T18:59:32.118Z,6.23
2019-05-01T19:02:20.439Z,5.90
2019-05-01T19:05:08.803Z,6.77
2019-05-01T19:07:51.732Z,6.60
2019-05-01T19:10:36.734Z,7.47
2019-05-01T19:13:21.712Z,7.13
2019-05-01T19:16:08.145Z,8.43
2019-05-01T19:18:53.484Z,5.77
2019-05-01T19:21:41.811Z,7.03
2019-05-01T19:24:25.634Z,8.53
2019-05-01T19:27:14.331Z,8.33
2019-05-01T19:29:57.993Z,14.27
2019-05-01T19:32:43.205Z,6.53
2019-05-01T19:35:28.974Z,13.07
2019-05-01T19:38:15.810Z,9.43
2019-05-01T19:41:03.640Z,6.90
2019-05-01T19:43:47.612Z,7.73
2019-05-01T19:46:32.213Z,10.63
2019-05-01T19:49:17.249Z,8.03
2019-05-01T19:52:02.239Z,9.23
2019-05-01T19:54:47.068Z,8.70
2019-05-01T19:57:31.989Z,11.90
2019-05-01T20:00:38.837Z,9.57
2019-05-01T20:03:24.032Z,11.27
2019-05-01T20:06:08.719Z,6.47
2019-05-01T20:08:53.513Z,6.37
2019-05-01T20:11:38.347Z,6.80
2019-05-01T20:14:23.331Z,13.60
2019-05-01T20:17:09.931Z,10.40
2019-05-01T20:19:55.248Z,7.23
2019-05-01T20:22:40.031Z,7.10
2019-05-01T20:25:24.900Z,5.57
2019-05-01T20:28:09.889Z,8.40
2019-05-01T20:30:54.590Z,8.97
2019-05-01T20:33:44.121Z,9.63
2019-05-01T20:36:26.121Z,7.47
2019-05-01T20:39:11.251Z,12.90
2019-05-01T20:41:56.106Z,5.80
2019-05-01T20:44:40.840Z,6.50
2019-05-01T20:47:34.829Z,9.00
2019-05-01T20:50:13.961Z,7.83
2019-05-01T20:52:58.918Z,6.77
2019-05-01T20:55:45.832Z,7.30
2019-05-01T20:58:30.865Z,7.97
2019-05-01T21:01:15.740Z,8.87
2019-05-01T21:04:05.447Z,9.57
2019-05-01T21:07:10.527Z,7.30
2019-05-01T21:09:59.132Z,8.37
2019-05-01T21:12:44.401Z,9.33
2019-05-01T21:15:29.331Z,9.80
2019-05-01T21:18:14.560Z,7.73
2019-05-01T21:20:59.487Z,7.67
2019-05-01T21:23:48.119Z,9.23
2019-05-01T21:26:33.429Z,8.43
2019-05-01T21:29:18.185Z,7.77
2019-05-01T21:32:03.591Z,8.53
2019-05-01T21:34:48.483Z,12.17
2019-05-01T21:37:33.286Z,7.97
2019-05-01T21:40:18.181Z,9.10
2019-05-01T21:43:03.196Z,8.73
2019-05-01T21:45:47.786Z,7.33
2019-05-01T21:48:33.462Z,10.60
2019-05-01T21:51:18.630Z,11.73
2019-05-01T21:54:03.406Z,7.33
2019-05-01T21:56:47.883Z,7.57
2019-05-01T21:59:32.398Z,9.60
2019-05-01T22:02:17.277Z,11.90
2019-05-01T22:05:04.957Z,5.90
2019-05-01T22:07:50.107Z,9.80
2019-05-01T22:10:35.423Z,10.77
2019-05-01T22:13:24.054Z,9.33
2019-05-01T22:16:11.661Z,9.50
2019-05-01T22:19:01.198Z,10.03
2019-05-01T22:21:48.448Z,10.43
2019-05-01T22:24:41.118Z,10.27
2019-05-01T22:27:39.610Z,8.60
2019-05-01T22:30:26.452Z,9.33
2019-05-01T22:33:12.103Z,11.90
2019-05-01T22:35:56.547Z,10.60
2019-05-01T22:38:41.497Z,12.10
2019-05-01T22:41:26.416Z,9.37
2019-05-01T22:44:12.734Z,10.50
2019-05-01T22:46:58.145Z,8.40
2019-05-01T22:49:42.916Z,10.40
2019-05-01T22:52:27.754Z,11.80
2019-05-01T22:55:13.917Z,11.70
2019-05-01T22:57:59.026Z,12.63
2019-05-01T23:00:46.090Z,12.83
2019-05-01T23:03:32.717Z,18.33
2019-05-01T23:06:18.075Z,12.17
2019-05-01T23:09:05.147Z,14.27
2019-05-01T23:11:50.020Z,15.63
2019-05-01T23:14:35.205Z,13.23
2019-05-01T23:17:21.893Z,15.57
2019-05-01T23:20:08.586Z,20.67
2019-05-01T23:22:52.986Z,20.53
2019-05-01T23:25:41.145Z,15.83
2019-05-01T23:28:24.418Z,18.97
2019-05-01T23:31:09.256Z,14.50
2019-05-01T23:33:54.273Z,19.80
2019-05-01T23:36:47.070Z,17.70
2019-05-01T23:39:39.794Z,15.87
2019-05-01T23:42:18.774Z,15.53
2019-05-01T23:45:04.375Z,15.00
2019-05-01T23:47:48.620Z,15.37
2019-05-01T23:50:33.670Z,14.93
2019-05-01T23:53:18.458Z,15.00
2019-05-01T23:56:03.499Z,15.97
2019-05-01T23:58:48.372Z,14.87
